Time;durP1;ratioP1;P1;durP2;ratioP2;P2;SDS_P1;SDS_P2;PMS_P1;PMS_P2;Temp;Humidity;BMP_temperature;BMP_pressure;BME280_temperature;BME280_humidity;BME280_pressure;Samples;Min_cycle;Max_cycle;Signal;HPM_P1;HPM_P2
2023/01/31 00:02:17;;;;;;;18.30;4.22;;;;;;;;;;5116623;27;20202;-63
2023/01/31 00:04:46;;;;;;;13.82;4.55;;;;;;;;;;5114322;28;20202;-63
2023/01/31 00:07:13;;;;;;;16.25;4.78;;;;;;;;;;5113861;28;20203;-63
2023/01/31 00:09:40;;;;;;;13.02;4.68;;;;;;;;;;5117593;27;20226;-64
2023/01/31 00:12:07;;;;;;;19.75;5.10;;;;;;;;;;5126706;27;20280;-64
2023/01/31 00:14:34;;;;;;;23.48;5.80;;;;;;;;;;5133406;27;20546;-65
2023/01/31 00:17:02;;;;;;;20.48;4.35;;;;;;;;;;5133659;27;20548;-64
2023/01/31 00:19:29;;;;;;;13.02;3.92;;;;;;;;;;5133563;27;20198;-64
2023/01/31 00:21:57;;;;;;;29.40;4.15;;;;;;;;;;5133971;27;20194;-64
2023/01/31 00:24:24;;;;;;;32.88;4.63;;;;;;;;;;5133685;27;20198;-64
2023/01/31 00:26:55;;;;;;;12.48;3.38;;;;;;;;;;5133173;27;20638;-64
2023/01/31 00:29:22;;;;;;;17.77;3.78;;;;;;;;;;5134651;27;20328;-63
2023/01/31 00:31:50;;;;;;;12.77;3.47;;;;;;;;;;5134866;28;20206;-63
2023/01/31 00:34:17;;;;;;;16.98;3.78;;;;;;;;;;5133897;28;20200;-64
2023/01/31 00:36:44;;;;;;;12.95;4.05;;;;;;;;;;5133654;28;20555;-64
2023/01/31 00:39:13;;;;;;;14.13;3.70;;;;;;;;;;5133778;28;20203;-63
2023/01/31 00:41:40;;;;;;;20.83;5.60;;;;;;;;;;5134125;28;20201;-63
2023/01/31 00:44:07;;;;;;;15.90;4.22;;;;;;;;;;5134473;28;20216;-64
2023/01/31 00:46:35;;;;;;;14.68;3.92;;;;;;;;;;5134097;28;20196;-63
2023/01/31 00:49:02;;;;;;;22.13;4.50;;;;;;;;;;5134160;28;20218;-64
2023/01/31 00:51:29;;;;;;;28.98;4.88;;;;;;;;;;5133888;28;20198;-63
2023/01/31 00:53:56;;;;;;;8.27;3.30;;;;;;;;;;5134318;28;20640;-63
2023/01/31 00:56:25;;;;;;;16.63;3.70;;;;;;;;;;5134124;28;20193;-63
2023/01/31 00:58:53;;;;;;;13.90;3.83;;;;;;;;;;5134436;28;20226;-63
2023/01/31 01:01:21;;;;;;;23.33;5.45;;;;;;;;;;5129911;27;20198;-63
2023/01/31 01:03:49;;;;;;;13.75;4.90;;;;;;;;;;5114641;28;20207;-63
2023/01/31 01:06:16;;;;;;;14.30;4.32;;;;;;;;;;5113616;28;20201;-63
2023/01/31 01:08:43;;;;;;;19.83;4.55;;;;;;;;;;5115372;28;20567;-64
2023/01/31 01:11:12;;;;;;;20.85;4.35;;;;;;;;;;5113592;28;20204;-63
2023/01/31 01:13:41;;;;;;;18.77;4.32;;;;;;;;;;5113120;28;20665;-63
2023/01/31 01:16:09;;;;;;;16.95;4.18;;;;;;;;;;5113520;28;20194;-63
2023/01/31 01:18:36;;;;;;;15.23;4.00;;;;;;;;;;5113453;28;20203;-63
2023/01/31 01:21:08;;;;;;;16.77;4.57;;;;;;;;;;5113592;28;20213;-64
2023/01/31 01:23:35;;;;;;;16.17;3.50;;;;;;;;;;5113592;28;20189;-63
2023/01/31 01:26:02;;;;;;;17.85;4.32;;;;;;;;;;5113310;28;20192;-63
2023/01/31 01:28:30;;;;;;;19.67;4.57;;;;;;;;;;5113294;28;20347;-63
2023/01/31 01:30:58;;;;;;;17.48;4.82;;;;;;;;;;5113386;28;20228;-63
2023/01/31 01:33:25;;;;;;;17.63;3.70;;;;;;;;;;5112988;28;21029;-63
2023/01/31 01:35:53;;;;;;;12.68;3.42;;;;;;;;;;5113010;28;20651;-63
2023/01/31 01:38:20;;;;;;;12.77;3.78;;;;;;;;;;5116954;28;20533;-63
2023/01/31 01:40:47;;;;;;;23.50;4.50;;;;;;;;;;5117486;28;20198;-63
2023/01/31 01:43:14;;;;;;;19.85;3.63;;;;;;;;;;5116638;28;20318;-64
2023/01/31 01:45:42;;;;;;;21.63;3.60;;;;;;;;;;5116929;28;20193;-63
2023/01/31 01:48:13;;;;;;;18.27;3.90;;;;;;;;;;5116900;28;20205;-63
2023/01/31 01:50:42;;;;;;;16.17;3.65;;;;;;;;;;5116628;28;20186;-63
2023/01/31 01:53:11;;;;;;;15.50;4.13;;;;;;;;;;5116467;28;20201;-63
2023/01/31 01:55:40;;;;;;;21.15;3.78;;;;;;;;;;5116572;28;20194;-63
2023/01/31 01:58:10;;;;;;;16.80;4.00;;;;;;;;;;5117044;28;20358;-63
2023/01/31 02:00:38;;;;;;;22.92;3.88;;;;;;;;;;5117143;28;20194;-63
2023/01/31 02:03:06;;;;;;;23.77;5.20;;;;;;;;;;5119126;27;20289;-63
2023/01/31 02:05:37;;;;;;;23.67;4.50;;;;;;;;;;5116388;28;20249;-63
2023/01/31 02:08:04;;;;;;;15.73;4.05;;;;;;;;;;5115358;27;20177;-64
2023/01/31 02:10:34;;;;;;;17.60;4.65;;;;;;;;;;5118225;27;20300;-63
2023/01/31 02:13:01;;;;;;;12.95;4.53;;;;;;;;;;5116515;28;20235;-63
2023/01/31 02:15:28;;;;;;;20.27;5.13;;;;;;;;;;5116090;28;20671;-63
2023/01/31 02:17:56;;;;;;;16.35;5.57;;;;;;;;;;5116366;28;20286;-63
2023/01/31 02:20:38;;;;;;;10.30;4.32;;;;;;;;;;5115804;28;20212;-63
2023/01/31 02:23:23;;;;;;;12.23;3.85;;;;;;;;;;5071817;28;20201;-63
2023/01/31 02:26:13;;;;;;;17.75;3.78;;;;;;;;;;5115640;28;20723;-63
2023/01/31 02:28:58;;;;;;;22.20;4.38;;;;;;;;;;5116233;28;20213;-63
2023/01/31 02:31:49;;;;;;;14.43;4.47;;;;;;;;;;5116664;28;20182;-64
2023/01/31 02:34:22;;;;;;;16.05;5.43;;;;;;;;;;5095295;28;20200;-63
2023/01/31 02:36:57;;;;;;;12.98;5.10;;;;;;;;;;5115483;28;20183;-63
2023/01/31 02:39:28;;;;;;;12.07;3.70;;;;;;;;;;5115605;28;20200;-63
2023/01/31 02:41:58;;;;;;;18.95;4.00;;;;;;;;;;5115798;28;20193;-63
2023/01/31 02:47:18;;;;;;;14.45;4.40;;;;;;;;;;5115467;28;20257;-64
2023/01/31 02:49:49;;;;;;;24.05;4.65;;;;;;;;;;5114789;28;20245;-64
2023/01/31 02:52:19;;;;;;;21.08;4.43;;;;;;;;;;5115940;28;20187;-64
2023/01/31 02:57:38;;;;;;;17.92;4.57;;;;;;;;;;5115718;28;20697;-63
2023/01/31 03:00:06;;;;;;;17.17;5.57;;;;;;;;;;5115568;28;20196;-64
2023/01/31 03:02:33;;;;;;;15.02;3.85;;;;;;;;;;5118887;27;20199;-64
2023/01/31 03:05:02;;;;;;;13.93;3.63;;;;;;;;;;5114881;28;20221;-64
2023/01/31 03:07:32;;;;;;;28.50;4.72;;;;;;;;;;5115196;28;20202;-63
2023/01/31 03:10:02;;;;;;;21.05;3.70;;;;;;;;;;5115062;27;20222;-63
2023/01/31 03:12:33;;;;;;;19.20;3.97;;;;;;;;;;5115283;28;20188;-64
2023/01/31 03:15:04;;;;;;;12.15;4.22;;;;;;;;;;5114636;28;20205;-63
2023/01/31 03:17:34;;;;;;;13.13;4.63;;;;;;;;;;5114556;28;20190;-65
2023/01/31 03:20:06;;;;;;;10.20;3.80;;;;;;;;;;5114643;28;20201;-63
2023/01/31 03:22:35;;;;;;;19.45;5.13;;;;;;;;;;5115150;28;20550;-63
2023/01/31 03:25:04;;;;;;;12.85;4.70;;;;;;;;;;5114940;28;20198;-63
2023/01/31 03:27:32;;;;;;;15.60;4.28;;;;;;;;;;5115041;28;20568;-63
2023/01/31 03:30:02;;;;;;;11.63;4.93;;;;;;;;;;5114522;28;20230;-63
2023/01/31 03:32:31;;;;;;;14.20;4.28;;;;;;;;;;5114883;28;20202;-63
2023/01/31 03:34:59;;;;;;;23.17;5.47;;;;;;;;;;5114437;28;20194;-63
2023/01/31 03:37:32;;;;;;;18.17;4.13;;;;;;;;;;5114826;28;20289;-63
2023/01/31 03:40:03;;;;;;;14.20;4.90;;;;;;;;;;5114858;28;20189;-63
2023/01/31 03:42:35;;;;;;;13.32;3.78;;;;;;;;;;5114512;28;20187;-64
2023/01/31 03:45:05;;;;;;;17.02;4.38;;;;;;;;;;5114886;28;20520;-64
2023/01/31 03:47:34;;;;;;;18.42;4.30;;;;;;;;;;5114629;28;20575;-63
2023/01/31 03:50:03;;;;;;;14.68;4.90;;;;;;;;;;5114375;28;20222;-64
2023/01/31 03:52:34;;;;;;;22.20;4.15;;;;;;;;;;5114596;28;20195;-63
2023/01/31 03:55:04;;;;;;;14.48;4.43;;;;;;;;;;5114521;28;20186;-64
2023/01/31 03:57:33;;;;;;;16.73;5.35;;;;;;;;;;5114478;28;20570;-63
2023/01/31 04:00:02;;;;;;;11.80;3.45;;;;;;;;;;5113885;28;20199;-63
2023/01/31 04:02:31;;;;;;;21.95;4.70;;;;;;;;;;5116803;27;20551;-64
2023/01/31 04:05:01;;;;;;;20.00;4.65;;;;;;;;;;5114538;28;20195;-63
2023/01/31 04:07:28;;;;;;;17.60;4.05;;;;;;;;;;5114049;28;20203;-63
2023/01/31 04:09:57;;;;;;;18.20;4.63;;;;;;;;;;5116413;27;20227;-63
2023/01/31 04:12:24;;;;;;;20.48;4.65;;;;;;;;;;5113919;28;20194;-64
2023/01/31 04:14:51;;;;;;;18.63;6.53;;;;;;;;;;5114046;28;20195;-63
2023/01/31 04:17:18;;;;;;;26.48;4.93;;;;;;;;;;5113658;28;20195;-64
2023/01/31 04:19:45;;;;;;;8.98;6.45;;;;;;;;;;5113966;28;20194;-63
2023/01/31 04:22:12;;;;;;;12.30;3.88;;;;;;;;;;5113875;28;20216;-63
2023/01/31 04:24:40;;;;;;;11.45;4.55;;;;;;;;;;5113932;28;20191;-63
2023/01/31 04:27:08;;;;;;;18.10;5.13;;;;;;;;;;5113987;28;20194;-64
2023/01/31 04:29:35;;;;;;;18.90;5.20;;;;;;;;;;5113925;28;20221;-63
2023/01/31 04:32:02;;;;;;;12.57;4.25;;;;;;;;;;5113754;28;20280;-63
2023/01/31 04:34:30;;;;;;;12.02;4.00;;;;;;;;;;5113793;28;20217;-63
2023/01/31 04:36:57;;;;;;;13.65;4.25;;;;;;;;;;5113735;28;20196;-63
2023/01/31 04:39:24;;;;;;;14.13;4.78;;;;;;;;;;5114082;28;20198;-63
2023/01/31 04:41:51;;;;;;;19.60;4.50;;;;;;;;;;5113360;28;20194;-63
2023/01/31 04:44:20;;;;;;;20.08;4.97;;;;;;;;;;5113539;28;20195;-63
2023/01/31 04:46:47;;;;;;;18.85;5.15;;;;;;;;;;5113797;28;20199;-63
2023/01/31 04:49:14;;;;;;;11.68;4.45;;;;;;;;;;5113394;28;20285;-63
2023/01/31 04:51:41;;;;;;;13.48;4.53;;;;;;;;;;5116465;28;20575;-63
2023/01/31 04:54:08;;;;;;;12.65;3.95;;;;;;;;;;5134584;28;20200;-63
2023/01/31 04:56:36;;;;;;;13.63;4.93;;;;;;;;;;5127376;28;20229;-64
2023/01/31 04:59:03;;;;;;;14.07;4.60;;;;;;;;;;5104050;28;20194;-63
2023/01/31 05:01:31;;;;;;;15.80;5.05;;;;;;;;;;5093087;28;20200;-63
2023/01/31 05:03:58;;;;;;;11.70;4.65;;;;;;;;;;5092889;28;20673;-63
2023/01/31 05:06:26;;;;;;;11.07;4.10;;;;;;;;;;5092825;28;20657;-63
2023/01/31 05:08:53;;;;;;;11.10;4.00;;;;;;;;;;5093108;28;20219;-63
2023/01/31 05:11:20;;;;;;;18.17;4.13;;;;;;;;;;5093588;28;20272;-63
2023/01/31 05:13:47;;;;;;;16.77;5.50;;;;;;;;;;5096587;28;20190;-65
2023/01/31 05:16:15;;;;;;;10.98;4.55;;;;;;;;;;5096749;28;20193;-71
2023/01/31 05:18:49;;;;;;;10.50;4.03;;;;;;;;;;5096801;28;20229;-64
2023/01/31 05:21:16;;;;;;;18.55;4.93;;;;;;;;;;5097287;28;20607;-67
2023/01/31 05:23:44;;;;;;;20.73;5.72;;;;;;;;;;5096867;28;20195;-63
2023/01/31 05:26:11;;;;;;;15.90;6.70;;;;;;;;;;5096869;28;20194;-63
2023/01/31 05:28:38;;;;;;;7.82;3.92;;;;;;;;;;5096638;28;20557;-63
2023/01/31 05:31:06;;;;;;;11.05;5.82;;;;;;;;;;5096722;28;20214;-63
2023/01/31 05:33:34;;;;;;;21.02;6.88;;;;;;;;;;5096663;28;20200;-63
2023/01/31 05:36:02;;;;;;;21.25;4.78;;;;;;;;;;5096311;28;20194;-63
2023/01/31 05:38:30;;;;;;;16.33;5.00;;;;;;;;;;5096402;28;20197;-64
2023/01/31 05:40:57;;;;;;;13.50;5.22;;;;;;;;;;5096241;28;20794;-63
2023/01/31 05:43:24;;;;;;;18.80;4.88;;;;;;;;;;5095686;28;20190;-63
2023/01/31 05:45:51;;;;;;;9.90;4.65;;;;;;;;;;5102801;28;20195;-64
2023/01/31 05:48:18;;;;;;;20.08;5.72;;;;;;;;;;5096076;28;20282;-63
2023/01/31 05:50:46;;;;;;;23.38;5.35;;;;;;;;;;5096005;28;20222;-63
2023/01/31 05:53:14;;;;;;;14.93;5.95;;;;;;;;;;5095944;28;20245;-63
2023/01/31 05:55:42;;;;;;;16.95;6.00;;;;;;;;;;5096193;28;20196;-63
2023/01/31 05:58:09;;;;;;;26.38;8.32;;;;;;;;;;5113344;28;20645;-63
2023/01/31 06:00:36;;;;;;;23.52;6.18;;;;;;;;;;5116650;28;20193;-65
2023/01/31 06:03:03;;;;;;;16.05;5.97;;;;;;;;;;5114583;28;20194;-64
2023/01/31 06:05:31;;;;;;;21.83;7.78;;;;;;;;;;5115194;28;20322;-64
2023/01/31 06:07:58;;;;;;;19.35;6.75;;;;;;;;;;5115951;28;20201;-67
2023/01/31 06:10:27;;;;;;;17.52;6.47;;;;;;;;;;5116222;28;20222;-63
2023/01/31 06:12:54;;;;;;;19.98;6.22;;;;;;;;;;5115850;28;20195;-62
2023/01/31 06:15:21;;;;;;;13.43;6.65;;;;;;;;;;5116355;28;20686;-62
2023/01/31 06:17:48;;;;;;;13.27;6.60;;;;;;;;;;5116306;28;20219;-63
2023/01/31 06:20:15;;;;;;;22.63;7.38;;;;;;;;;;5116214;28;20210;-62
2023/01/31 06:22:43;;;;;;;19.75;6.25;;;;;;;;;;5114815;28;20194;-62
2023/01/31 06:25:10;;;;;;;31.15;7.82;;;;;;;;;;5115943;28;20194;-62
2023/01/31 06:27:39;;;;;;;13.43;7.30;;;;;;;;;;5115902;28;20195;-62
2023/01/31 06:30:06;;;;;;;20.92;7.57;;;;;;;;;;5115977;28;20231;-62
2023/01/31 06:32:33;;;;;;;17.70;7.82;;;;;;;;;;5116217;28;20194;-62
2023/01/31 06:35:01;;;;;;;18.25;7.63;;;;;;;;;;5115697;28;20234;-62
2023/01/31 06:37:28;;;;;;;18.80;8.73;;;;;;;;;;5115501;28;20210;-62
2023/01/31 06:39:55;;;;;;;24.30;8.20;;;;;;;;;;5115429;28;20305;-63
2023/01/31 06:42:22;;;;;;;18.60;7.35;;;;;;;;;;5115818;28;20276;-62
2023/01/31 06:44:51;;;;;;;26.63;8.13;;;;;;;;;;5115842;28;20193;-62
2023/01/31 06:47:18;;;;;;;20.75;7.70;;;;;;;;;;5116214;28;20196;-63
2023/01/31 06:49:45;;;;;;;23.75;9.02;;;;;;;;;;5116269;28;20530;-62
2023/01/31 06:52:13;;;;;;;17.23;7.60;;;;;;;;;;5115786;28;20196;-62
2023/01/31 06:54:40;;;;;;;21.15;8.85;;;;;;;;;;5115553;28;20201;-62
2023/01/31 06:57:07;;;;;;;16.67;8.18;;;;;;;;;;5115705;28;20227;-62
2023/01/31 06:59:34;;;;;;;11.90;6.53;;;;;;;;;;5115131;28;20196;-62
2023/01/31 07:02:03;;;;;;;14.63;7.43;;;;;;;;;;5115560;28;20224;-62
2023/01/31 07:04:30;;;;;;;27.92;8.57;;;;;;;;;;5115445;28;20283;-62
2023/01/31 07:06:57;;;;;;;17.70;8.38;;;;;;;;;;5115233;28;20644;-62
2023/01/31 07:09:24;;;;;;;24.85;10.50;;;;;;;;;;5114937;28;20663;-62
2023/01/31 07:11:52;;;;;;;14.93;8.68;;;;;;;;;;5115215;28;20684;-62
2023/01/31 07:14:19;;;;;;;27.48;10.35;;;;;;;;;;5115189;28;20562;-62
2023/01/31 07:16:46;;;;;;;33.58;10.07;;;;;;;;;;5115323;28;20290;-62
2023/01/31 07:19:15;;;;;;;20.30;10.20;;;;;;;;;;5115280;28;20192;-62
2023/01/31 07:21:43;;;;;;;22.45;9.95;;;;;;;;;;5115277;28;20255;-62
2023/01/31 07:24:10;;;;;;;18.48;8.65;;;;;;;;;;5114628;28;20199;-62
2023/01/31 07:26:37;;;;;;;21.08;10.15;;;;;;;;;;5115225;28;20221;-62
2023/01/31 07:29:04;;;;;;;17.15;9.32;;;;;;;;;;5114881;28;20195;-62
2023/01/31 07:31:32;;;;;;;20.48;10.55;;;;;;;;;;5114892;28;20215;-62
2023/01/31 07:33:59;;;;;;;23.02;9.77;;;;;;;;;;5114503;28;20202;-64
2023/01/31 07:36:28;;;;;;;28.38;9.30;;;;;;;;;;5114718;28;20191;-62
2023/01/31 07:38:55;;;;;;;19.45;10.23;;;;;;;;;;5114396;28;20202;-62
2023/01/31 07:41:22;;;;;;;20.90;8.98;;;;;;;;;;5114437;28;20681;-62
2023/01/31 07:43:50;;;;;;;27.45;8.95;;;;;;;;;;5114631;28;20212;-62
2023/01/31 07:46:17;;;;;;;19.55;8.65;;;;;;;;;;5114927;28;20201;-62
2023/01/31 07:48:44;;;;;;;20.17;8.80;;;;;;;;;;5114012;28;20210;-62
2023/01/31 07:51:12;;;;;;;22.40;9.32;;;;;;;;;;5114185;28;20217;-62
2023/01/31 07:53:42;;;;;;;16.73;7.85;;;;;;;;;;5114390;28;20190;-63
2023/01/31 07:56:11;;;;;;;17.05;8.70;;;;;;;;;;5113921;28;20182;-63
2023/01/31 07:58:38;;;;;;;28.15;9.63;;;;;;;;;;5114032;28;20220;-62
2023/01/31 08:03:52;;;;;;;27.15;9.68;;;;;;;;;;5113998;28;20191;-62
2023/01/31 08:06:19;;;;;;;14.68;7.70;;;;;;;;;;5113907;28;20218;-62
2023/01/31 08:08:48;;;;;;;21.35;8.27;;;;;;;;;;5114516;28;20191;-62
2023/01/31 08:11:15;;;;;;;15.63;8.88;;;;;;;;;;5114124;28;20577;-62
2023/01/31 08:13:42;;;;;;;19.52;8.55;;;;;;;;;;5113698;28;20200;-61
2023/01/31 08:16:10;;;;;;;17.98;9.32;;;;;;;;;;5114133;28;20195;-62
2023/01/31 08:18:37;;;;;;;17.70;8.57;;;;;;;;;;5113674;28;20226;-62
2023/01/31 08:21:05;;;;;;;19.42;9.23;;;;;;;;;;5113960;28;20206;-62
2023/01/31 08:23:32;;;;;;;19.77;8.68;;;;;;;;;;5113688;28;20206;-63
2023/01/31 08:26:01;;;;;;;22.13;9.27;;;;;;;;;;5114518;28;20252;-62
2023/01/31 08:28:28;;;;;;;17.90;9.35;;;;;;;;;;5113927;28;20229;-62
2023/01/31 08:30:56;;;;;;;22.15;10.77;;;;;;;;;;5113768;28;20234;-62
2023/01/31 08:33:23;;;;;;;24.90;9.52;;;;;;;;;;5113513;28;20203;-62
2023/01/31 08:35:50;;;;;;;21.15;9.35;;;;;;;;;;5113423;28;20221;-61
2023/01/31 08:38:17;;;;;;;18.45;7.88;;;;;;;;;;5113840;28;20199;-62
2023/01/31 08:40:45;;;;;;;18.35;7.85;;;;;;;;;;5113462;28;20207;-63
2023/01/31 08:43:13;;;;;;;22.10;8.48;;;;;;;;;;5113819;28;20290;-63
2023/01/31 08:45:41;;;;;;;17.33;7.50;;;;;;;;;;5113776;28;20200;-63
2023/01/31 08:48:08;;;;;;;23.75;8.60;;;;;;;;;;5117747;28;20200;-63
2023/01/31 08:50:35;;;;;;;25.17;8.45;;;;;;;;;;5117813;28;20189;-63
2023/01/31 08:53:03;;;;;;;20.27;8.35;;;;;;;;;;5117707;28;20194;-63
2023/01/31 08:55:31;;;;;;;13.45;7.55;;;;;;;;;;5117967;28;20289;-63
2023/01/31 08:57:58;;;;;;;17.33;9.48;;;;;;;;;;5117953;28;20309;-63
2023/01/31 09:00:27;;;;;;;18.38;8.32;;;;;;;;;;5117431;28;20286;-63
2023/01/31 09:02:55;;;;;;;18.35;7.70;;;;;;;;;;5117476;28;20203;-63
2023/01/31 09:05:22;;;;;;;21.75;7.55;;;;;;;;;;5117572;28;20193;-63
2023/01/31 09:07:49;;;;;;;19.48;8.52;;;;;;;;;;5117744;28;20195;-63
2023/01/31 09:10:16;;;;;;;15.93;7.82;;;;;;;;;;5117586;28;20208;-63
2023/01/31 09:12:44;;;;;;;21.88;7.00;;;;;;;;;;5117130;28;20680;-63
2023/01/31 09:15:11;;;;;;;15.95;7.43;;;;;;;;;;5117506;28;20198;-63
2023/01/31 09:17:40;;;;;;;23.85;7.22;;;;;;;;;;5117586;28;20194;-63
2023/01/31 09:20:09;;;;;;;15.88;6.82;;;;;;;;;;5117463;28;20200;-63
2023/01/31 09:22:36;;;;;;;22.30;6.30;;;;;;;;;;5117245;28;20246;-63
2023/01/31 09:25:04;;;;;;;15.63;7.75;;;;;;;;;;5116997;28;20191;-63
2023/01/31 09:27:31;;;;;;;21.88;7.90;;;;;;;;;;5117229;28;20188;-63
2023/01/31 09:29:58;;;;;;;15.32;7.70;;;;;;;;;;5116687;28;20198;-63
2023/01/31 09:32:25;;;;;;;16.65;7.80;;;;;;;;;;5116854;28;20227;-63
2023/01/31 09:34:54;;;;;;;17.40;7.50;;;;;;;;;;5116916;28;20671;-63
2023/01/31 09:37:21;;;;;;;21.98;7.30;;;;;;;;;;5117752;28;20283;-63
2023/01/31 09:39:48;;;;;;;22.02;7.43;;;;;;;;;;5116756;28;20211;-63
2023/01/31 09:42:19;;;;;;;23.73;8.63;;;;;;;;;;5117202;28;20230;-63
2023/01/31 09:44:50;;;;;;;12.98;6.07;;;;;;;;;;5116835;28;20634;-63
2023/01/31 09:47:23;;;;;;;20.92;6.80;;;;;;;;;;5117579;28;20197;-62
2023/01/31 09:49:52;;;;;;;24.75;8.13;;;;;;;;;;5117013;28;20187;-63
2023/01/31 09:52:21;;;;;;;28.73;6.97;;;;;;;;;;5116558;28;20219;-63
2023/01/31 09:54:49;;;;;;;25.50;9.90;;;;;;;;;;5116732;28;20195;-62
2023/01/31 09:57:23;;;;;;;15.27;6.45;;;;;;;;;;5116135;28;20329;-63
2023/01/31 09:59:53;;;;;;;16.25;7.10;;;;;;;;;;5116384;28;20213;-64
2023/01/31 10:02:38;;;;;;;17.50;7.78;;;;;;;;;;5116551;28;20187;-62
2023/01/31 10:05:12;;;;;;;14.90;7.00;;;;;;;;;;5116647;28;20548;-62
2023/01/31 10:07:45;;;;;;;14.95;7.00;;;;;;;;;;5116399;28;20196;-63
2023/01/31 10:10:16;;;;;;;22.05;7.75;;;;;;;;;;5117049;28;20545;-63
2023/01/31 10:12:45;;;;;;;23.75;7.43;;;;;;;;;;5116252;28;20212;-62
2023/01/31 10:15:14;;;;;;;14.55;9.07;;;;;;;;;;5116097;28;20199;-62
2023/01/31 10:17:44;;;;;;;18.23;8.32;;;;;;;;;;5116124;28;20543;-62
2023/01/31 10:20:19;;;;;;;11.85;5.57;;;;;;;;;;5116289;28;20206;-63
2023/01/31 10:22:51;;;;;;;17.15;8.68;;;;;;;;;;5116676;28;20278;-62
2023/01/31 10:25:25;;;;;;;13.80;6.30;;;;;;;;;;5115957;28;20189;-63
2023/01/31 10:27:56;;;;;;;15.52;6.45;;;;;;;;;;5116415;28;20680;-63
2023/01/31 10:30:25;;;;;;;15.55;6.45;;;;;;;;;;5116391;28;20183;-63
2023/01/31 10:32:54;;;;;;;13.90;7.22;;;;;;;;;;5116199;28;20241;-62
2023/01/31 10:35:24;;;;;;;19.55;7.05;;;;;;;;;;5116068;28;20616;-63
2023/01/31 10:37:55;;;;;;;21.20;9.07;;;;;;;;;;5115792;28;20214;-63
2023/01/31 10:40:24;;;;;;;23.60;7.43;;;;;;;;;;5115722;28;20557;-63
2023/01/31 10:42:52;;;;;;;25.92;9.48;;;;;;;;;;5115869;28;20194;-63
2023/01/31 10:45:21;;;;;;;14.90;8.02;;;;;;;;;;5115826;28;20199;-63
2023/01/31 10:47:50;;;;;;;18.58;6.88;;;;;;;;;;5115439;28;20201;-63
2023/01/31 10:50:19;;;;;;;11.07;7.03;;;;;;;;;;5115475;28;20191;-62
2023/01/31 10:52:53;;;;;;;14.60;7.25;;;;;;;;;;5115291;28;20313;-62
2023/01/31 10:55:34;;;;;;;14.00;7.13;;;;;;;;;;5115774;28;20184;-62
2023/01/31 10:58:01;;;;;;;16.77;6.50;;;;;;;;;;5115677;28;20253;-62
2023/01/31 11:00:30;;;;;;;13.45;6.40;;;;;;;;;;5115582;28;20195;-62
2023/01/31 11:02:58;;;;;;;23.77;8.07;;;;;;;;;;5115455;28;20198;-62
2023/01/31 11:05:26;;;;;;;20.58;7.00;;;;;;;;;;5115489;28;20270;-62
2023/01/31 11:07:54;;;;;;;21.27;6.82;;;;;;;;;;5115091;28;20197;-62
2023/01/31 11:10:23;;;;;;;13.57;6.88;;;;;;;;;;5114396;28;20198;-62
2023/01/31 11:12:55;;;;;;;18.77;7.25;;;;;;;;;;5114825;28;20223;-64
2023/01/31 11:15:24;;;;;;;18.48;7.78;;;;;;;;;;5114961;28;20206;-63
2023/01/31 11:17:52;;;;;;;12.40;7.25;;;;;;;;;;5115133;28;20194;-63
2023/01/31 11:20:24;;;;;;;13.18;7.97;;;;;;;;;;5115587;28;20194;-63
2023/01/31 11:22:52;;;;;;;12.50;6.07;;;;;;;;;;5114992;28;20198;-63
2023/01/31 11:25:21;;;;;;;17.13;7.82;;;;;;;;;;5114997;28;20206;-62
2023/01/31 11:27:48;;;;;;;18.80;7.38;;;;;;;;;;5114496;28;20247;-62
2023/01/31 11:30:22;;;;;;;23.20;7.57;;;;;;;;;;5114856;28;20210;-63
2023/01/31 11:32:50;;;;;;;17.05;7.95;;;;;;;;;;5114328;28;20302;-62
2023/01/31 11:35:25;;;;;;;11.60;6.60;;;;;;;;;;5115242;28;20221;-62
2023/01/31 11:37:53;;;;;;;12.70;8.05;;;;;;;;;;5114795;28;20194;-62
2023/01/31 11:40:22;;;;;;;13.77;7.70;;;;;;;;;;5114539;28;20642;-62
2023/01/31 11:42:53;;;;;;;17.33;6.20;;;;;;;;;;5114744;28;20283;-62
2023/01/31 11:45:22;;;;;;;27.63;8.20;;;;;;;;;;5114428;28;20200;-62
2023/01/31 11:47:50;;;;;;;15.40;6.75;;;;;;;;;;5114473;28;20200;-63
2023/01/31 11:50:21;;;;;;;11.90;6.55;;;;;;;;;;5115670;28;20210;-62
2023/01/31 11:52:54;;;;;;;12.23;6.97;;;;;;;;;;5114384;28;20220;-62
2023/01/31 11:55:21;;;;;;;8.45;6.00;;;;;;;;;;5114685;28;20185;-63
2023/01/31 11:57:54;;;;;;;18.83;6.72;;;;;;;;;;5114407;28;20685;-62
2023/01/31 12:00:25;;;;;;;12.02;6.28;;;;;;;;;;5114225;28;20184;-62
2023/01/31 12:02:54;;;;;;;7.30;6.50;;;;;;;;;;5114633;28;20193;-62
2023/01/31 12:05:33;;;;;;;16.67;7.38;;;;;;;;;;5114415;28;20199;-62
2023/01/31 12:08:00;;;;;;;14.13;6.47;;;;;;;;;;5114037;28;20529;-62
2023/01/31 12:10:35;;;;;;;13.93;7.45;;;;;;;;;;5114900;28;20199;-62
2023/01/31 12:13:03;;;;;;;11.65;7.68;;;;;;;;;;5113771;28;20209;-62
2023/01/31 12:15:32;;;;;;;14.43;7.93;;;;;;;;;;5114305;28;20504;-62
2023/01/31 12:18:02;;;;;;;10.18;6.88;;;;;;;;;;5114050;28;20195;-63
2023/01/31 12:20:38;;;;;;;22.95;7.90;;;;;;;;;;5114068;28;20203;-62
2023/01/31 12:23:11;;;;;;;13.95;7.63;;;;;;;;;;5114087;28;20560;-62
2023/01/31 12:25:46;;;;;;;14.85;7.25;;;;;;;;;;5113907;28;20271;-63
2023/01/31 12:28:20;;;;;;;8.70;5.65;;;;;;;;;;5114389;28;20200;-63
2023/01/31 12:30:55;;;;;;;15.68;8.63;;;;;;;;;;5114049;28;20188;-62
2023/01/31 12:33:36;;;;;;;12.05;8.25;;;;;;;;;;5114085;28;20208;-62
2023/01/31 12:36:18;;;;;;;24.25;9.65;;;;;;;;;;5114307;28;20206;-62
2023/01/31 12:38:54;;;;;;;13.52;9.65;;;;;;;;;;5113775;28;20276;-62
2023/01/31 12:41:27;;;;;;;12.13;9.10;;;;;;;;;;5113663;28;20187;-62
2023/01/31 12:44:00;;;;;;;19.70;10.07;;;;;;;;;;5113509;28;20195;-62
2023/01/31 12:46:36;;;;;;;14.10;7.82;;;;;;;;;;5114671;28;20184;-63
2023/01/31 12:49:11;;;;;;;19.20;7.78;;;;;;;;;;5113904;28;20537;-63
2023/01/31 12:51:42;;;;;;;14.45;8.52;;;;;;;;;;5113379;28;20187;-63
2023/01/31 12:54:21;;;;;;;24.73;10.70;;;;;;;;;;5113507;28;20638;-63
2023/01/31 12:56:55;;;;;;;12.68;9.95;;;;;;;;;;5113417;28;20231;-63
2023/01/31 12:59:32;;;;;;;22.77;11.50;;;;;;;;;;5113614;28;20185;-63
2023/01/31 13:02:03;;;;;;;19.75;10.15;;;;;;;;;;5113394;28;20271;-63
2023/01/31 13:04:35;;;;;;;20.48;10.65;;;;;;;;;;5113708;28;20611;-63
2023/01/31 13:07:05;;;;;;;15.40;10.88;;;;;;;;;;5113766;28;20227;-63
2023/01/31 13:09:33;;;;;;;18.40;11.30;;;;;;;;;;5113603;28;20195;-62
2023/01/31 13:12:05;;;;;;;13.88;8.75;;;;;;;;;;5114278;28;20289;-63
2023/01/31 13:14:33;;;;;;;17.95;10.90;;;;;;;;;;5113327;28;20191;-62
2023/01/31 13:17:04;;;;;;;23.55;13.57;;;;;;;;;;5113208;28;20194;-62
2023/01/31 13:19:34;;;;;;;16.13;9.73;;;;;;;;;;5113214;28;20199;-62
2023/01/31 13:22:04;;;;;;;19.40;12.77;;;;;;;;;;5113182;28;20651;-63
2023/01/31 13:24:33;;;;;;;13.85;10.80;;;;;;;;;;5113049;28;20285;-63
2023/01/31 13:27:03;;;;;;;17.92;11.90;;;;;;;;;;5113723;28;20197;-63
2023/01/31 13:29:31;;;;;;;15.95;11.38;;;;;;;;;;5113375;28;20282;-63
2023/01/31 13:32:00;;;;;;;18.50;13.23;;;;;;;;;;5113140;28;20239;-64
2023/01/31 13:34:30;;;;;;;19.55;11.48;;;;;;;;;;5116937;28;20200;-64
2023/01/31 13:36:59;;;;;;;17.75;13.13;;;;;;;;;;5117153;28;20229;-63
2023/01/31 13:39:29;;;;;;;18.80;11.95;;;;;;;;;;5117040;28;20203;-64
2023/01/31 13:41:56;;;;;;;18.27;11.65;;;;;;;;;;5117132;28;20246;-64
2023/01/31 13:44:23;;;;;;;15.20;12.70;;;;;;;;;;5117064;28;20271;-64
2023/01/31 13:46:52;;;;;;;20.35;13.23;;;;;;;;;;5117072;28;20232;-64
2023/01/31 13:49:22;;;;;;;17.80;11.65;;;;;;;;;;5117015;28;20196;-63
2023/01/31 13:51:53;;;;;;;20.65;12.77;;;;;;;;;;5116474;28;20656;-64
2023/01/31 13:54:22;;;;;;;23.67;14.30;;;;;;;;;;5116460;28;20211;-64
2023/01/31 13:56:51;;;;;;;22.15;14.70;;;;;;;;;;5116264;28;20234;-65
2023/01/31 13:59:21;;;;;;;19.73;14.40;;;;;;;;;;5116741;28;20283;-65
2023/01/31 14:01:50;;;;;;;18.08;15.18;;;;;;;;;;5116492;28;20691;-66
2023/01/31 14:04:22;;;;;;;16.77;12.15;;;;;;;;;;5116368;28;20201;-65
2023/01/31 14:07:01;;;;;;;20.80;13.52;;;;;;;;;;5116676;28;20198;-65
2023/01/31 14:09:29;;;;;;;17.83;13.43;;;;;;;;;;5116253;27;20595;-66
2023/01/31 14:11:57;;;;;;;31.33;16.58;;;;;;;;;;5130379;27;20201;-66
2023/01/31 14:14:40;;;;;;;24.27;15.95;;;;;;;;;;5134404;27;20220;-65
2023/01/31 14:17:12;;;;;;;20.75;15.43;;;;;;;;;;5136710;27;20180;-65
2023/01/31 14:19:55;;;;;;;27.27;15.63;;;;;;;;;;5136480;27;20177;-65
2023/01/31 14:22:24;;;;;;;21.75;16.30;;;;;;;;;;5136994;27;20180;-66
2023/01/31 14:25:00;;;;;;;21.52;16.05;;;;;;;;;;5136649;27;20194;-66
2023/01/31 14:27:29;;;;;;;23.13;16.38;;;;;;;;;;5136657;27;20221;-66
2023/01/31 14:29:58;;;;;;;21.33;15.25;;;;;;;;;;5136576;27;20202;-66
2023/01/31 14:32:29;;;;;;;26.50;14.85;;;;;;;;;;5136653;27;20700;-68
2023/01/31 14:34:57;;;;;;;18.70;12.90;;;;;;;;;;5136123;27;20311;-69
2023/01/31 14:37:32;;;;;;;21.45;14.48;;;;;;;;;;5135880;27;20197;-64
2023/01/31 14:40:10;;;;;;;23.85;16.13;;;;;;;;;;5135994;27;20198;-67
2023/01/31 14:42:48;;;;;;;19.35;15.27;;;;;;;;;;5136332;27;20186;-68
2023/01/31 14:45:22;;;;;;;20.52;14.43;;;;;;;;;;5114524;28;20191;-65
2023/01/31 14:47:55;;;;;;;19.80;13.63;;;;;;;;;;5116466;28;20274;-65
2023/01/31 14:50:32;;;;;;;18.38;14.07;;;;;;;;;;5115603;28;20541;-65